createdAt,value
2023-01-17T00:02:21.000Z,3.28
2023-01-17T00:05:08.561Z,3.27
2023-01-17T00:07:55.309Z,3.24
2023-01-17T00:10:25.430Z,3.21
2023-01-17T00:12:56.364Z,3.21
2023-01-17T00:15:25.807Z,3.19
2023-01-17T00:17:54.199Z,3.18
2023-01-17T00:20:50.742Z,3.20
2023-01-17T00:23:43.099Z,3.19
2023-01-17T00:26:17.145Z,3.18
2023-01-17T00:28:46.410Z,3.18
2023-01-17T00:31:16.568Z,3.20
2023-01-17T00:33:45.395Z,3.19
2023-01-17T00:36:13.664Z,3.17
2023-01-17T00:38:41.741Z,3.19
2023-01-17T00:41:12.581Z,3.22
2023-01-17T00:43:59.870Z,3.28
2023-01-17T00:46:46.476Z,3.31
2023-01-17T00:49:33.620Z,3.34
2023-01-17T00:52:20.136Z,3.39
2023-01-17T00:55:06.957Z,3.43
2023-01-17T00:57:53.222Z,3.48
2023-01-17T01:00:40.302Z,3.53
2023-01-17T01:03:28.437Z,3.58
2023-01-17T01:06:14.759Z,3.62
2023-01-17T01:09:01.141Z,3.66
2023-01-17T01:11:47.463Z,3.70
2023-01-17T01:14:34.028Z,3.72
2023-01-17T01:17:20.693Z,3.74
2023-01-17T01:20:07.041Z,3.76
2023-01-17T01:22:53.346Z,3.81
2023-01-17T01:25:40.089Z,3.83
2023-01-17T01:28:31.443Z,3.87
2023-01-17T01:31:22.491Z,3.97
2023-01-17T01:33:52.124Z,4.08
2023-01-17T01:36:20.721Z,4.11
2023-01-17T01:38:50.435Z,4.12
2023-01-17T01:41:18.518Z,4.14
2023-01-17T01:43:54.869Z,4.16
2023-01-17T01:46:29.006Z,4.17
2023-01-17T01:49:03.306Z,4.19
2023-01-17T01:51:35.444Z,4.18
2023-01-17T01:54:12.408Z,4.18
2023-01-17T01:56:42.025Z,4.18
2023-01-17T01:59:14.008Z,4.13
2023-01-17T02:01:42.172Z,4.11
2023-01-17T02:04:11.132Z,4.07
2023-01-17T02:06:48.911Z,4.06
2023-01-17T02:09:18.573Z,4.07
2023-01-17T02:11:48.950Z,4.10
2023-01-17T02:14:18.982Z,4.12
2023-01-17T02:17:12.792Z,4.15
2023-01-17T02:20:08.851Z,4.18
2023-01-17T02:23:07.939Z,4.22
2023-01-17T02:25:47.959Z,4.24
2023-01-17T02:28:34.314Z,4.27
2023-01-17T02:31:15.173Z,4.30
2023-01-17T02:33:52.289Z,4.30
2023-01-17T02:36:23.150Z,4.31
2023-01-17T02:39:17.241Z,4.31
2023-01-17T02:41:50.847Z,4.29
2023-01-17T02:44:20.852Z,4.27
2023-01-17T02:46:50.061Z,4.25
2023-01-17T02:49:21.764Z,4.24
2023-01-17T02:52:02.075Z,4.24
2023-01-17T02:55:01.364Z,4.22
2023-01-17T02:57:58.607Z,4.22
2023-01-17T03:01:05.586Z,4.24
2023-01-17T03:03:38.846Z,4.23
2023-01-17T03:06:12.465Z,4.25
2023-01-17T03:08:43.397Z,4.26
2023-01-17T03:11:12.608Z,4.28
2023-01-17T03:13:42.337Z,4.30
2023-01-17T03:16:18.872Z,4.32
2023-01-17T03:18:47.319Z,4.35
2023-01-17T03:21:15.536Z,4.35
2023-01-17T03:23:44.291Z,4.37
2023-01-17T03:26:12.412Z,4.37
2023-01-17T03:28:40.445Z,4.36
2023-01-17T03:31:08.502Z,4.36
2023-01-17T03:33:36.563Z,4.34
2023-01-17T03:36:04.864Z,4.33
2023-01-17T03:38:33.284Z,4.35
2023-01-17T03:41:01.599Z,4.34
2023-01-17T03:43:29.657Z,4.35
2023-01-17T03:46:08.471Z,4.34
2023-01-17T03:48:36.351Z,4.35
2023-01-17T03:51:04.373Z,4.33
2023-01-17T03:53:32.330Z,4.34
2023-01-17T03:56:01.010Z,4.36
2023-01-17T03:58:29.285Z,4.38
2023-01-17T04:00:57.472Z,4.40
2023-01-17T04:03:26.723Z,4.41
2023-01-17T04:05:54.696Z,4.41
2023-01-17T04:08:23.097Z,4.42
2023-01-17T04:10:52.438Z,4.43
2023-01-17T04:13:20.924Z,4.44
2023-01-17T04:15:52.263Z,4.42
2023-01-17T04:18:23.598Z,4.38
2023-01-17T04:20:52.095Z,4.36
2023-01-17T04:23:20.115Z,4.37
2023-01-17T04:25:48.528Z,4.36
2023-01-17T04:28:16.549Z,4.40
2023-01-17T04:30:44.716Z,4.41
2023-01-17T04:33:12.635Z,4.42
2023-01-17T04:35:40.867Z,4.44
2023-01-17T04:38:08.992Z,4.49
2023-01-17T04:40:36.935Z,4.51
2023-01-17T04:43:07.670Z,4.50
2023-01-17T04:45:35.720Z,4.52
2023-01-17T04:48:06.070Z,4.56
2023-01-17T04:50:37.055Z,4.59
2023-01-17T04:53:05.355Z,4.60
2023-01-17T04:55:36.218Z,4.62
2023-01-17T04:58:04.435Z,4.62
2023-01-17T05:00:32.670Z,4.64
2023-01-17T05:03:00.679Z,4.70
2023-01-17T05:05:28.803Z,4.78
2023-01-17T05:07:58.426Z,4.86
2023-01-17T05:10:26.915Z,4.97
2023-01-17T05:12:59.632Z,5.00
2023-01-17T05:15:29.292Z,5.02
2023-01-17T05:17:57.278Z,5.03
2023-01-17T05:20:27.819Z,5.03
2023-01-17T05:22:57.795Z,5.03
2023-01-17T05:25:28.471Z,5.02
2023-01-17T05:27:57.519Z,5.00
2023-01-17T05:30:27.908Z,5.05
2023-01-17T05:32:59.956Z,5.03
2023-01-17T05:35:35.258Z,5.02
2023-01-17T05:38:06.171Z,5.00
2023-01-17T05:40:36.023Z,4.98
2023-01-17T05:43:04.295Z,4.96
2023-01-17T05:45:33.524Z,4.95
2023-01-17T05:48:02.353Z,4.97
2023-01-17T05:50:35.776Z,4.93
2023-01-17T05:53:11.051Z,4.89
2023-01-17T05:55:40.025Z,4.80
2023-01-17T05:58:17.177Z,4.73
2023-01-17T06:00:45.963Z,4.66
2023-01-17T06:03:15.742Z,4.59
2023-01-17T06:05:45.023Z,4.48
2023-01-17T06:08:16.098Z,4.42
2023-01-17T06:10:44.123Z,4.34
2023-01-17T06:13:15.392Z,4.26
2023-01-17T06:15:45.378Z,4.21
2023-01-17T06:18:15.796Z,4.22
2023-01-17T06:20:44.709Z,4.24
2023-01-17T06:23:14.990Z,4.29
2023-01-17T06:25:45.398Z,4.38
2023-01-17T06:28:18.644Z,4.43
2023-01-17T06:30:47.365Z,4.47
2023-01-17T06:33:16.268Z,4.49
2023-01-17T06:35:51.746Z,4.50
2023-01-17T06:38:20.411Z,4.51
2023-01-17T06:40:48.918Z,4.52
2023-01-17T06:43:17.454Z,4.52
2023-01-17T06:45:46.740Z,4.53
2023-01-17T06:48:16.027Z,4.53
2023-01-17T06:50:46.929Z,4.55
2023-01-17T06:53:15.160Z,4.54
2023-01-17T06:55:44.791Z,4.56
2023-01-17T06:58:12.850Z,4.61
2023-01-17T07:00:43.167Z,4.65
2023-01-17T07:03:23.521Z,4.66
2023-01-17T07:05:53.282Z,4.72
2023-01-17T07:08:21.430Z,4.69
2023-01-17T07:10:50.255Z,4.75
2023-01-17T07:13:18.483Z,4.82
2023-01-17T07:15:46.930Z,4.85
2023-01-17T07:18:16.309Z,4.86
2023-01-17T07:20:45.005Z,4.89
2023-01-17T07:23:14.758Z,4.85
2023-01-17T07:25:44.308Z,4.87
2023-01-17T07:28:12.623Z,4.90
2023-01-17T07:30:41.224Z,4.88
2023-01-17T07:33:11.101Z,4.95
2023-01-17T07:35:39.239Z,4.87
2023-01-17T07:38:11.509Z,4.92
2023-01-17T07:40:42.349Z,4.98
2023-01-17T07:43:14.408Z,5.04
2023-01-17T07:45:44.746Z,5.05
2023-01-17T07:48:13.385Z,5.11
2023-01-17T07:50:41.970Z,5.17
2023-01-17T07:53:10.977Z,5.16
2023-01-17T07:55:40.264Z,5.22
2023-01-17T07:58:08.671Z,5.27
2023-01-17T08:00:38.299Z,5.26
2023-01-17T08:03:06.573Z,5.32
2023-01-17T08:05:34.592Z,5.30
2023-01-17T08:08:03.823Z,5.34
2023-01-17T08:10:31.976Z,5.29
2023-01-17T08:13:00.208Z,5.26
2023-01-17T08:15:28.209Z,5.30
2023-01-17T08:17:57.777Z,5.35
2023-01-17T08:20:28.128Z,5.44
2023-01-17T08:22:56.947Z,5.57
2023-01-17T08:25:26.395Z,5.71
2023-01-17T08:27:59.165Z,5.86
2023-01-17T08:30:28.533Z,6.05
2023-01-17T08:32:56.781Z,6.25
2023-01-17T08:35:24.752Z,6.39
2023-01-17T08:37:55.707Z,6.51
2023-01-17T08:40:24.227Z,6.71
2023-01-17T08:43:01.541Z,6.88
2023-01-17T08:45:29.654Z,7.09
2023-01-17T08:47:59.284Z,7.24
2023-01-17T08:50:28.076Z,7.30
2023-01-17T08:53:01.888Z,7.36
2023-01-17T08:58:02.660Z,7.46
2023-01-17T09:00:32.849Z,7.45
2023-01-17T09:03:02.171Z,7.48
2023-01-17T09:05:30.255Z,7.49
2023-01-17T09:07:58.416Z,7.54
2023-01-17T09:10:29.952Z,7.55
2023-01-17T09:13:00.556Z,7.61
2023-01-17T09:15:28.805Z,7.65
2023-01-17T09:17:57.579Z,7.72
2023-01-17T09:20:30.734Z,7.84
2023-01-17T09:23:04.265Z,7.97
2023-01-17T09:25:32.495Z,7.94
2023-01-17T09:28:01.334Z,8.01
2023-01-17T09:30:30.158Z,8.09
2023-01-17T09:32:58.722Z,8.14
2023-01-17T09:35:26.937Z,8.22
2023-01-17T09:37:57.250Z,8.23
2023-01-17T09:40:26.252Z,8.28
2023-01-17T09:43:01.754Z,8.35
2023-01-17T09:45:33.650Z,8.46
2023-01-17T09:48:10.558Z,8.52
2023-01-17T09:50:55.666Z,8.60
2023-01-17T09:53:25.324Z,8.67
2023-01-17T09:56:35.178Z,8.70
2023-01-17T09:59:40.229Z,8.64
2023-01-17T10:02:26.716Z,8.69
2023-01-17T10:05:20.322Z,8.78
2023-01-17T10:08:22.290Z,8.85
2023-01-17T10:11:02.668Z,9.04
2023-01-17T10:13:45.254Z,9.10
2023-01-17T10:16:28.556Z,9.22
2023-01-17T10:19:11.189Z,9.23
2023-01-17T10:22:02.835Z,9.23
2023-01-17T10:25:16.283Z,9.24
2023-01-17T10:28:13.753Z,9.15
2023-01-17T10:30:49.385Z,9.13
2023-01-17T10:33:27.641Z,9.19
2023-01-17T10:36:10.831Z,9.21
2023-01-17T10:38:44.951Z,9.21
2023-01-17T10:41:21.700Z,9.26
2023-01-17T10:44:11.086Z,9.26
2023-01-17T10:46:44.663Z,9.27
2023-01-17T10:49:20.328Z,9.28
2023-01-17T10:52:00.482Z,9.28
2023-01-17T10:54:55.080Z,9.28
2023-01-17T10:57:26.076Z,9.26
2023-01-17T11:00:02.129Z,9.22
2023-01-17T11:02:35.906Z,9.28
2023-01-17T11:05:20.862Z,9.31
2023-01-17T11:08:07.218Z,9.36
2023-01-17T11:10:42.707Z,9.39
2023-01-17T11:13:34.376Z,9.43
2023-01-17T11:16:08.442Z,9.51
2023-01-17T11:18:40.164Z,9.65
2023-01-17T11:21:15.592Z,9.63
2023-01-17T11:23:49.294Z,9.60
2023-01-17T11:26:25.241Z,9.69
2023-01-17T11:29:14.613Z,9.72
2023-01-17T11:31:42.997Z,9.81
2023-01-17T11:34:24.351Z,9.91
2023-01-17T11:37:29.260Z,10.02
2023-01-17T11:40:29.228Z,10.11
2023-01-17T11:43:29.339Z,10.12
2023-01-17T11:46:15.677Z,10.15
2023-01-17T11:48:59.985Z,10.24
2023-01-17T11:51:41.602Z,10.27
2023-01-17T11:54:26.928Z,10.35
2023-01-17T11:57:04.908Z,10.45
2023-01-17T11:59:43.890Z,10.46
2023-01-17T12:02:32.629Z,10.55
2023-01-17T12:05:09.613Z,10.54
2023-01-17T12:07:46.501Z,10.59
2023-01-17T12:10:32.290Z,10.57
2023-01-17T12:13:31.968Z,10.51
2023-01-17T12:16:33.134Z,10.48
2023-01-17T12:19:08.109Z,10.51
2023-01-17T12:21:51.735Z,10.53
2023-01-17T12:24:58.499Z,10.40
2023-01-17T12:27:27.043Z,10.34
2023-01-17T12:30:30.831Z,10.31
2023-01-17T12:33:39.776Z,10.32
2023-01-17T12:36:24.997Z,10.28
2023-01-17T12:38:56.676Z,10.35
2023-01-17T12:41:31.867Z,10.31
2023-01-17T12:44:01.187Z,10.22
2023-01-17T12:46:40.835Z,10.18
2023-01-17T12:49:28.766Z,10.18
2023-01-17T12:52:05.864Z,10.13
2023-01-17T12:54:40.182Z,10.18
2023-01-17T12:57:15.719Z,10.20
2023-01-17T13:00:12.730Z,10.15
2023-01-17T13:03:03.543Z,10.13
2023-01-17T13:05:46.115Z,10.09
2023-01-17T13:08:41.455Z,10.11
2023-01-17T13:11:23.713Z,10.09
2023-01-17T13:13:53.479Z,10.09
2023-01-17T13:16:40.037Z,10.11
2023-01-17T13:19:58.568Z,10.13
2023-01-17T13:22:27.948Z,10.14
2023-01-17T13:25:18.773Z,10.16
2023-01-17T13:28:22.763Z,10.15
2023-01-17T13:31:10.224Z,10.15
2023-01-17T13:33:54.687Z,10.12
2023-01-17T13:36:59.588Z,10.13
2023-01-17T13:39:50.525Z,10.10
2023-01-17T13:42:58.173Z,10.11
2023-01-17T13:45:53.410Z,10.08
2023-01-17T13:48:21.655Z,10.08
2023-01-17T13:50:53.239Z,10.10
2023-01-17T13:53:27.784Z,10.10
2023-01-17T13:56:11.184Z,10.08
2023-01-17T13:58:50.421Z,10.04
2023-01-17T14:01:44.518Z,9.98
2023-01-17T14:04:14.521Z,9.90
2023-01-17T14:06:53.041Z,9.86
2023-01-17T14:09:38.155Z,9.78
2023-01-17T14:12:25.387Z,9.72
2023-01-17T14:14:58.894Z,9.63
2023-01-17T14:17:55.742Z,9.57
2023-01-17T14:20:27.474Z,9.50
2023-01-17T14:23:00.123Z,9.46
2023-01-17T14:25:30.916Z,9.36
2023-01-17T14:28:04.543Z,9.27
2023-01-17T14:30:33.104Z,9.21
2023-01-17T14:33:01.635Z,9.14
2023-01-17T14:35:52.669Z,9.05
2023-01-17T14:38:29.483Z,9.03
2023-01-17T14:41:00.964Z,8.98
2023-01-17T14:43:33.171Z,8.92
2023-01-17T14:46:24.610Z,8.83
2023-01-17T14:49:07.217Z,8.73
2023-01-17T14:51:37.284Z,8.64
2023-01-17T14:54:21.238Z,8.54
2023-01-17T14:56:50.069Z,8.43
2023-01-17T14:59:22.235Z,8.39
2023-01-17T15:02:06.676Z,8.31
2023-01-17T15:04:40.116Z,8.19
2023-01-17T15:07:15.373Z,8.11
2023-01-17T15:09:44.082Z,8.00
2023-01-17T15:12:19.130Z,7.84
2023-01-17T15:14:48.004Z,7.70
2023-01-17T15:17:25.568Z,7.56
2023-01-17T15:20:08.458Z,7.41
2023-01-17T15:22:37.877Z,7.26
2023-01-17T15:25:09.693Z,7.15
2023-01-17T15:27:39.403Z,7.08
2023-01-17T15:30:09.898Z,6.99
2023-01-17T15:32:40.685Z,6.89
2023-01-17T15:35:18.362Z,6.82
2023-01-17T15:37:53.709Z,6.81
2023-01-17T15:40:25.079Z,6.80
2023-01-17T15:42:58.348Z,6.79
2023-01-17T15:45:30.766Z,6.79
2023-01-17T15:48:37.920Z,6.80
2023-01-17T15:51:07.718Z,6.80
2023-01-17T15:53:39.327Z,6.81
2023-01-17T15:56:27.306Z,6.81
2023-01-17T15:58:56.498Z,6.80
2023-01-17T16:01:31.042Z,6.81
2023-01-17T16:03:59.299Z,6.80
2023-01-17T16:06:36.936Z,6.79
2023-01-17T16:09:20.412Z,6.80
2023-01-17T16:11:49.378Z,6.79
2023-01-17T16:14:17.993Z,6.79
2023-01-17T16:16:51.362Z,6.79
2023-01-17T16:19:21.991Z,6.79
2023-01-17T16:21:50.386Z,6.79
2023-01-17T16:24:19.765Z,6.82
2023-01-17T16:26:47.889Z,6.83
2023-01-17T16:29:16.648Z,6.85
2023-01-17T16:31:44.675Z,6.83
2023-01-17T16:34:13.150Z,6.84
2023-01-17T16:36:42.007Z,6.86
2023-01-17T16:39:14.421Z,6.91
2023-01-17T16:41:44.586Z,6.97
2023-01-17T16:44:12.644Z,7.01
2023-01-17T16:46:41.467Z,7.02
2023-01-17T16:49:09.691Z,7.05
2023-01-17T16:51:37.888Z,7.07
2023-01-17T16:54:08.060Z,7.08
2023-01-17T16:56:36.038Z,7.10
2023-01-17T16:59:04.129Z,7.10
2023-01-17T17:01:32.353Z,7.11
2023-01-17T17:04:00.515Z,7.12
2023-01-17T17:06:31.488Z,7.10
2023-01-17T17:09:00.671Z,7.08
2023-01-17T17:11:28.946Z,7.06
2023-01-17T17:13:57.013Z,7.04
2023-01-17T17:16:30.060Z,7.00
2023-01-17T17:19:01.765Z,7.01
2023-01-17T17:21:32.254Z,7.00
2023-01-17T17:24:01.320Z,6.97
2023-01-17T17:26:34.674Z,6.99
2023-01-17T17:29:05.106Z,7.00
2023-01-17T17:31:33.764Z,6.98
2023-01-17T17:34:06.084Z,7.00
2023-01-17T17:36:35.459Z,6.99
2023-01-17T17:39:06.591Z,6.98
2023-01-17T17:41:39.231Z,6.95
2023-01-17T17:44:07.252Z,6.93
2023-01-17T17:46:37.111Z,6.90
2023-01-17T17:49:07.057Z,6.88
2023-01-17T17:51:37.814Z,6.86
2023-01-17T17:54:11.639Z,6.84
2023-01-17T17:56:46.583Z,6.81
2023-01-17T17:59:20.325Z,6.75
2023-01-17T18:01:48.667Z,6.70
2023-01-17T18:04:17.166Z,6.68
2023-01-17T18:06:45.981Z,6.63
2023-01-17T18:09:14.546Z,6.60
2023-01-17T18:11:44.185Z,6.60
2023-01-17T18:14:14.962Z,6.60
2023-01-17T18:16:44.992Z,6.61
2023-01-17T18:19:19.605Z,6.58
2023-01-17T18:21:51.488Z,6.61
2023-01-17T18:24:22.274Z,6.60
2023-01-17T18:26:58.949Z,6.57
2023-01-17T18:29:27.666Z,6.54
2023-01-17T18:31:56.503Z,6.49
2023-01-17T18:34:29.376Z,6.45
2023-01-17T18:36:57.984Z,6.43
2023-01-17T18:39:28.799Z,6.40
2023-01-17T18:41:57.808Z,6.34
2023-01-17T18:44:27.501Z,6.33
2023-01-17T18:46:59.622Z,6.30
2023-01-17T18:49:29.166Z,6.25
2023-01-17T18:51:57.824Z,6.23
2023-01-17T18:54:28.417Z,6.19
2023-01-17T18:56:57.909Z,6.17
2023-01-17T18:59:26.078Z,6.12
2023-01-17T19:01:54.310Z,6.11
2023-01-17T19:04:22.448Z,6.10
2023-01-17T19:06:51.379Z,6.02
2023-01-17T19:09:19.587Z,5.99
2023-01-17T19:11:47.752Z,5.93
2023-01-17T19:14:15.928Z,5.88
2023-01-17T19:16:45.073Z,5.84
2023-01-17T19:19:15.350Z,5.80
2023-01-17T19:21:43.785Z,5.74
2023-01-17T19:24:13.310Z,5.72
2023-01-17T19:26:42.868Z,5.70
2023-01-17T19:29:11.247Z,5.66
2023-01-17T19:31:43.209Z,5.61
2023-01-17T19:34:18.899Z,5.61
2023-01-17T19:36:47.484Z,5.58
2023-01-17T19:39:16.084Z,5.52
2023-01-17T19:41:45.622Z,5.51
2023-01-17T19:44:15.280Z,5.49
2023-01-17T19:46:44.231Z,5.48
2023-01-17T19:49:13.433Z,5.49
2023-01-17T19:51:41.415Z,5.47
2023-01-17T19:54:09.955Z,5.44
2023-01-17T19:56:38.098Z,5.43
2023-01-17T19:59:07.510Z,5.41
2023-01-17T20:01:35.893Z,5.41
2023-01-17T20:04:04.830Z,5.42
2023-01-17T20:06:35.993Z,5.42
2023-01-17T20:09:07.081Z,5.40
2023-01-17T20:11:36.258Z,5.41
2023-01-17T20:14:07.526Z,5.40
2023-01-17T20:16:37.407Z,5.40
2023-01-17T20:19:06.290Z,5.41
2023-01-17T20:21:34.841Z,5.38
2023-01-17T20:24:03.479Z,5.37
2023-01-17T20:26:37.014Z,5.39
2023-01-17T20:29:10.137Z,5.37
2023-01-17T20:31:40.627Z,5.38
2023-01-17T20:34:12.415Z,5.38
2023-01-17T20:36:42.627Z,5.36
2023-01-17T20:39:13.551Z,5.35
2023-01-17T20:41:43.555Z,5.40
2023-01-17T20:44:15.408Z,5.42
2023-01-17T20:46:43.822Z,5.42
2023-01-17T20:49:15.580Z,5.41
2023-01-17T20:51:45.725Z,5.43
2023-01-17T20:54:16.641Z,5.41
2023-01-17T20:56:47.407Z,5.41
2023-01-17T20:59:18.727Z,5.44
2023-01-17T21:01:47.247Z,5.46
2023-01-17T21:04:16.619Z,5.44
2023-01-17T21:06:44.779Z,5.44
2023-01-17T21:09:15.323Z,5.44
2023-01-17T21:11:43.497Z,5.42
2023-01-17T21:14:12.519Z,5.43
2023-01-17T21:16:40.755Z,5.48
2023-01-17T21:19:12.107Z,5.44
2023-01-17T21:21:40.420Z,5.44
2023-01-17T21:24:09.283Z,5.38
2023-01-17T21:26:38.944Z,5.35
2023-01-17T21:29:07.327Z,5.37
2023-01-17T21:31:36.810Z,5.37
2023-01-17T21:34:07.502Z,5.36
2023-01-17T21:36:38.005Z,5.36
2023-01-17T21:39:12.602Z,5.37
2023-01-17T21:41:41.568Z,5.33
2023-01-17T21:44:19.595Z,5.25
2023-01-17T21:46:48.670Z,5.26
2023-01-17T21:49:17.411Z,5.24
2023-01-17T21:51:55.122Z,5.28
2023-01-17T21:54:44.178Z,5.24
2023-01-17T21:57:35.128Z,5.26
2023-01-17T22:00:06.685Z,5.28
2023-01-17T22:02:41.144Z,5.22
2023-01-17T22:05:10.100Z,5.30
2023-01-17T22:08:01.395Z,5.36
2023-01-17T22:10:29.435Z,5.41
2023-01-17T22:12:57.450Z,5.43
2023-01-17T22:15:25.473Z,5.45
2023-01-17T22:17:53.420Z,5.46
2023-01-17T22:20:23.994Z,5.46
2023-01-17T22:22:51.900Z,5.46
2023-01-17T22:25:20.038Z,5.45
2023-01-17T22:27:48.292Z,5.45
2023-01-17T22:30:16.531Z,5.42
2023-01-17T22:32:44.422Z,5.43
2023-01-17T22:35:12.454Z,5.44
2023-01-17T22:37:41.524Z,5.46
2023-01-17T22:40:12.564Z,5.46
2023-01-17T22:42:40.578Z,5.47
2023-01-17T22:45:10.345Z,5.47
2023-01-17T22:47:38.659Z,5.49
2023-01-17T22:50:09.061Z,5.46
2023-01-17T22:52:37.070Z,5.45
2023-01-17T22:55:05.829Z,5.43
2023-01-17T22:57:34.084Z,5.42
2023-01-17T23:00:02.127Z,5.44
2023-01-17T23:02:30.187Z,5.45
2023-01-17T23:04:59.266Z,5.47
2023-01-17T23:07:43.042Z,5.47
2023-01-17T23:10:13.850Z,5.49
2023-01-17T23:12:41.905Z,5.53
2023-01-17T23:15:28.160Z,5.54
2023-01-17T23:18:14.741Z,5.54
2023-01-17T23:20:42.854Z,5.56
2023-01-17T23:23:10.857Z,5.56
2023-01-17T23:25:38.876Z,5.55
2023-01-17T23:28:14.424Z,5.55
2023-01-17T23:30:43.085Z,5.54
2023-01-17T23:33:13.332Z,5.53
2023-01-17T23:35:46.201Z,5.54
2023-01-17T23:38:29.455Z,5.53
2023-01-17T23:41:27.501Z,5.53
2023-01-17T23:43:57.777Z,5.53
2023-01-17T23:46:26.848Z,5.52
2023-01-17T23:48:55.212Z,5.53
2023-01-17T23:51:23.420Z,5.52
2023-01-17T23:53:57.422Z,5.56
2023-01-17T23:56:25.545Z,5.59
2023-01-17T23:58:53.487Z,5.61
